Greeneville Municipal (3B1)
Greeneville, ME
Field Elevation: 1401
Lat: 45°27.80N  Long: 69°33.10W
CTAF/Unicom Freq: 122.8000
   
     For Weather-by-Phone, call (207) 695-2581
Weather Advisories
2019-09-15   12:39 Z
Altimeter 30.05" Hg
Wind 300° @ 10 KT
Gusts 21 KT
Visibility 10 SM
Ceiling CLR
Temperature 14° C (57° F)
Dewpoint 8° C (46° F)
Relative Humidity 64%
Density Altitude --
Condensation Altitude 4,700 feet
Wind and Runways
Indicated Runway = 32
Headwind = 9 kt
Crosswind = 3 kt
History
 
 
 
More Info
NOAA Forecast
 
 
About Us
Belfort Instrument
 
 
FAA Disclaimer: The data displayed is for advisory purposes only and is not to be used for flight planning or operations. For official data, please call (207) 695-2581 to hear the current automated AWOS voice message.
  METAR 3B1 151239Z AUTO 30010G21KT 10 SM CLR 14/08 A3005